sensor_id;sensor_type;location;lat;lon;timestamp;P1;durP1;ratioP1;P2;durP2;ratioP2
53525;SDS011;40551;50.478;19.378;2023-05-16T00:00:18;12.10;;;9.10;;
53525;SDS011;40551;50.478;19.378;2023-05-16T00:03:11;11.10;;;9.20;;
53525;SDS011;40551;50.478;19.378;2023-05-16T00:05:43;14.50;;;9.70;;
53525;SDS011;40551;50.478;19.378;2023-05-16T00:08:15;12.40;;;10.70;;
53525;SDS011;40551;50.478;19.378;2023-05-16T00:10:47;12.10;;;10.20;;
53525;SDS011;40551;50.478;19.378;2023-05-16T00:15:53;12.10;;;10.30;;
53525;SDS011;40551;50.478;19.378;2023-05-16T00:18:25;13.50;;;10.10;;
53525;SDS011;40551;50.478;19.378;2023-05-16T00:20:57;13.80;;;10.50;;
53525;SDS011;40551;50.478;19.378;2023-05-16T00:23:29;12.10;;;10.20;;
53525;SDS011;40551;50.478;19.378;2023-05-16T00:26:01;12.80;;;11.10;;
53525;SDS011;40551;50.478;19.378;2023-05-16T00:31:03;11.60;;;10.40;;
53525;SDS011;40551;50.478;19.378;2023-05-16T00:33:35;13.20;;;9.80;;
53525;SDS011;40551;50.478;19.378;2023-05-16T00:36:07;12.30;;;10.90;;
53525;SDS011;40551;50.478;19.378;2023-05-16T00:38:39;11.80;;;10.00;;
53525;SDS011;40551;50.478;19.378;2023-05-16T00:43:42;15.80;;;11.20;;
53525;SDS011;40551;50.478;19.378;2023-05-16T00:48:44;13.40;;;10.00;;
53525;SDS011;40551;50.478;19.378;2023-05-16T00:51:16;13.50;;;11.20;;
53525;SDS011;40551;50.478;19.378;2023-05-16T00:53:48;15.20;;;12.50;;
53525;SDS011;40551;50.478;19.378;2023-05-16T00:56:20;12.00;;;10.70;;
53525;SDS011;40551;50.478;19.378;2023-05-16T00:58:52;13.90;;;10.80;;
53525;SDS011;40551;50.478;19.378;2023-05-16T01:01:24;11.60;;;10.30;;
53525;SDS011;40551;50.478;19.378;2023-05-16T01:03:57;12.90;;;10.40;;
53525;SDS011;40551;50.478;19.378;2023-05-16T01:06:29;15.10;;;10.50;;
53525;SDS011;40551;50.478;19.378;2023-05-16T01:09:02;12.20;;;10.70;;
53525;SDS011;40551;50.478;19.378;2023-05-16T01:11:35;13.00;;;11.60;;
53525;SDS011;40551;50.478;19.378;2023-05-16T01:14:14;13.30;;;11.90;;
53525;SDS011;40551;50.478;19.378;2023-05-16T01:16:53;14.30;;;11.80;;
53525;SDS011;40551;50.478;19.378;2023-05-16T01:19:34;12.90;;;11.60;;
53525;SDS011;40551;50.478;19.378;2023-05-16T01:22:19;12.70;;;10.90;;
53525;SDS011;40551;50.478;19.378;2023-05-16T01:25:04;14.10;;;11.40;;
53525;SDS011;40551;50.478;19.378;2023-05-16T01:27:41;13.00;;;11.50;;
53525;SDS011;40551;50.478;19.378;2023-05-16T01:30:15;13.50;;;12.10;;
53525;SDS011;40551;50.478;19.378;2023-05-16T01:32:48;13.30;;;12.00;;
53525;SDS011;40551;50.478;19.378;2023-05-16T01:35:20;13.60;;;12.10;;
53525;SDS011;40551;50.478;19.378;2023-05-16T01:37:54;17.30;;;11.50;;
53525;SDS011;40551;50.478;19.378;2023-05-16T01:40:41;13.40;;;12.00;;
53525;SDS011;40551;50.478;19.378;2023-05-16T01:43:24;13.80;;;12.40;;
53525;SDS011;40551;50.478;19.378;2023-05-16T01:46:05;16.10;;;12.20;;
53525;SDS011;40551;50.478;19.378;2023-05-16T01:48:42;13.80;;;12.40;;
53525;SDS011;40551;50.478;19.378;2023-05-16T01:51:20;14.40;;;10.90;;
53525;SDS011;40551;50.478;19.378;2023-05-16T01:53:53;13.40;;;12.00;;
53525;SDS011;40551;50.478;19.378;2023-05-16T01:56:29;13.90;;;12.50;;
53525;SDS011;40551;50.478;19.378;2023-05-16T01:59:01;13.70;;;12.30;;
53525;SDS011;40551;50.478;19.378;2023-05-16T02:01:35;13.80;;;12.50;;
53525;SDS011;40551;50.478;19.378;2023-05-16T02:04:06;14.40;;;13.00;;
53525;SDS011;40551;50.478;19.378;2023-05-16T02:06:38;15.90;;;14.40;;
53525;SDS011;40551;50.478;19.378;2023-05-16T02:09:10;15.30;;;13.50;;
53525;SDS011;40551;50.478;19.378;2023-05-16T02:14:12;15.60;;;14.10;;
53525;SDS011;40551;50.478;19.378;2023-05-16T02:19:14;14.20;;;12.80;;
53525;SDS011;40551;50.478;19.378;2023-05-16T02:21:45;15.20;;;13.60;;
53525;SDS011;40551;50.478;19.378;2023-05-16T02:26:47;16.00;;;14.30;;
53525;SDS011;40551;50.478;19.378;2023-05-16T02:31:49;16.40;;;14.90;;
53525;SDS011;40551;50.478;19.378;2023-05-16T02:36:50;16.20;;;14.60;;
53525;SDS011;40551;50.478;19.378;2023-05-16T02:39:23;16.20;;;14.60;;
53525;SDS011;40551;50.478;19.378;2023-05-16T02:41:55;16.90;;;14.80;;
53525;SDS011;40551;50.478;19.378;2023-05-16T02:46:56;15.90;;;14.40;;
53525;SDS011;40551;50.478;19.378;2023-05-16T02:51:58;15.90;;;14.40;;
53525;SDS011;40551;50.478;19.378;2023-05-16T02:57:00;15.60;;;14.00;;
53525;SDS011;40551;50.478;19.378;2023-05-16T02:59:31;16.20;;;14.50;;
53525;SDS011;40551;50.478;19.378;2023-05-16T03:02:04;16.70;;;15.20;;
53525;SDS011;40551;50.478;19.378;2023-05-16T03:04:36;16.90;;;15.20;;
53525;SDS011;40551;50.478;19.378;2023-05-16T03:09:37;17.40;;;15.40;;
53525;SDS011;40551;50.478;19.378;2023-05-16T03:12:09;16.50;;;14.90;;
53525;SDS011;40551;50.478;19.378;2023-05-16T03:14:41;17.50;;;15.70;;
53525;SDS011;40551;50.478;19.378;2023-05-16T03:17:13;17.20;;;15.60;;
53525;SDS011;40551;50.478;19.378;2023-05-16T03:19:44;17.40;;;15.70;;
53525;SDS011;40551;50.478;19.378;2023-05-16T03:24:46;17.00;;;15.20;;
53525;SDS011;40551;50.478;19.378;2023-05-16T03:27:18;21.80;;;14.80;;
53525;SDS011;40551;50.478;19.378;2023-05-16T03:29:50;16.70;;;15.00;;
53525;SDS011;40551;50.478;19.378;2023-05-16T03:32:22;17.00;;;15.00;;
53525;SDS011;40551;50.478;19.378;2023-05-16T03:34:54;16.00;;;14.30;;
53525;SDS011;40551;50.478;19.378;2023-05-16T03:37:25;17.60;;;14.00;;
53525;SDS011;40551;50.478;19.378;2023-05-16T03:39:57;22.70;;;14.20;;
53525;SDS011;40551;50.478;19.378;2023-05-16T03:42:29;18.90;;;13.40;;
53525;SDS011;40551;50.478;19.378;2023-05-16T03:45:00;18.70;;;13.70;;
53525;SDS011;40551;50.478;19.378;2023-05-16T03:47:34;15.20;;;13.60;;
53525;SDS011;40551;50.478;19.378;2023-05-16T03:55:09;19.00;;;14.60;;
53525;SDS011;40551;50.478;19.378;2023-05-16T03:57:42;15.80;;;13.40;;
53525;SDS011;40551;50.478;19.378;2023-05-16T04:00:14;14.60;;;11.30;;
53525;SDS011;40551;50.478;19.378;2023-05-16T04:02:46;13.60;;;10.40;;
53525;SDS011;40551;50.478;19.378;2023-05-16T04:05:18;17.50;;;9.90;;
53525;SDS011;40551;50.478;19.378;2023-05-16T04:07:50;12.30;;;9.80;;
53525;SDS011;40551;50.478;19.378;2023-05-16T04:10:22;12.80;;;9.10;;
53525;SDS011;40551;50.478;19.378;2023-05-16T04:12:53;11.20;;;9.90;;
53525;SDS011;40551;50.478;19.378;2023-05-16T04:15:25;13.30;;;10.70;;
53525;SDS011;40551;50.478;19.378;2023-05-16T04:17:56;11.60;;;9.60;;
53525;SDS011;40551;50.478;19.378;2023-05-16T04:20:28;14.10;;;9.20;;
53525;SDS011;40551;50.478;19.378;2023-05-16T04:23:01;15.20;;;9.50;;
53525;SDS011;40551;50.478;19.378;2023-05-16T04:25:32;11.70;;;8.60;;
53525;SDS011;40551;50.478;19.378;2023-05-16T04:28:04;11.60;;;8.10;;
53525;SDS011;40551;50.478;19.378;2023-05-16T04:30:36;11.50;;;7.80;;
53525;SDS011;40551;50.478;19.378;2023-05-16T04:33:07;12.90;;;7.10;;
53525;SDS011;40551;50.478;19.378;2023-05-16T04:35:40;9.70;;;6.80;;
53525;SDS011;40551;50.478;19.378;2023-05-16T04:38:11;12.60;;;7.40;;
53525;SDS011;40551;50.478;19.378;2023-05-16T04:40:43;14.40;;;6.90;;
53525;SDS011;40551;50.478;19.378;2023-05-16T04:43:14;12.10;;;6.90;;
53525;SDS011;40551;50.478;19.378;2023-05-16T04:45:47;13.90;;;6.80;;
53525;SDS011;40551;50.478;19.378;2023-05-16T04:48:21;9.30;;;6.20;;
53525;SDS011;40551;50.478;19.378;2023-05-16T04:50:53;12.40;;;6.20;;
53525;SDS011;40551;50.478;19.378;2023-05-16T04:53:25;14.80;;;7.00;;
53525;SDS011;40551;50.478;19.378;2023-05-16T04:55:57;11.30;;;5.60;;
53525;SDS011;40551;50.478;19.378;2023-05-16T04:58:28;9.70;;;5.90;;
53525;SDS011;40551;50.478;19.378;2023-05-16T05:01:00;10.90;;;6.30;;
53525;SDS011;40551;50.478;19.378;2023-05-16T05:03:32;10.00;;;6.10;;
53525;SDS011;40551;50.478;19.378;2023-05-16T05:06:04;10.10;;;5.90;;
53525;SDS011;40551;50.478;19.378;2023-05-16T05:08:37;8.70;;;5.20;;
53525;SDS011;40551;50.478;19.378;2023-05-16T05:11:09;8.20;;;5.70;;
53525;SDS011;40551;50.478;19.378;2023-05-16T05:13:40;9.60;;;5.10;;
53525;SDS011;40551;50.478;19.378;2023-05-16T05:16:12;13.10;;;5.30;;
53525;SDS011;40551;50.478;19.378;2023-05-16T05:18:43;11.00;;;5.90;;
53525;SDS011;40551;50.478;19.378;2023-05-16T05:21:15;7.80;;;5.10;;
53525;SDS011;40551;50.478;19.378;2023-05-16T05:23:48;10.00;;;5.10;;
53525;SDS011;40551;50.478;19.378;2023-05-16T05:26:20;10.00;;;5.10;;
53525;SDS011;40551;50.478;19.378;2023-05-16T05:28:54;9.60;;;5.20;;
53525;SDS011;40551;50.478;19.378;2023-05-16T05:31:33;10.00;;;5.80;;
53525;SDS011;40551;50.478;19.378;2023-05-16T05:34:05;12.30;;;5.10;;
53525;SDS011;40551;50.478;19.378;2023-05-16T05:36:37;10.90;;;4.70;;
53525;SDS011;40551;50.478;19.378;2023-05-16T05:39:08;9.60;;;4.90;;
53525;SDS011;40551;50.478;19.378;2023-05-16T05:41:40;8.60;;;5.00;;
53525;SDS011;40551;50.478;19.378;2023-05-16T05:44:12;9.70;;;4.50;;
53525;SDS011;40551;50.478;19.378;2023-05-16T05:46:44;7.60;;;4.40;;
53525;SDS011;40551;50.478;19.378;2023-05-16T05:49:16;8.60;;;5.10;;
53525;SDS011;40551;50.478;19.378;2023-05-16T05:51:47;8.20;;;5.10;;
53525;SDS011;40551;50.478;19.378;2023-05-16T05:54:20;8.90;;;5.10;;
53525;SDS011;40551;50.478;19.378;2023-05-16T05:56:52;8.20;;;4.80;;
53525;SDS011;40551;50.478;19.378;2023-05-16T05:59:24;9.00;;;4.90;;
53525;SDS011;40551;50.478;19.378;2023-05-16T06:01:56;7.40;;;4.60;;
53525;SDS011;40551;50.478;19.378;2023-05-16T06:04:28;8.20;;;4.30;;
53525;SDS011;40551;50.478;19.378;2023-05-16T06:07:00;9.10;;;4.70;;
53525;SDS011;40551;50.478;19.378;2023-05-16T06:09:32;9.40;;;4.50;;
53525;SDS011;40551;50.478;19.378;2023-05-16T06:12:07;9.10;;;5.10;;
53525;SDS011;40551;50.478;19.378;2023-05-16T06:14:39;9.80;;;4.80;;
53525;SDS011;40551;50.478;19.378;2023-05-16T06:17:11;16.00;;;5.10;;
53525;SDS011;40551;50.478;19.378;2023-05-16T06:19:42;13.70;;;5.10;;
53525;SDS011;40551;50.478;19.378;2023-05-16T06:22:14;10.50;;;5.40;;
53525;SDS011;40551;50.478;19.378;2023-05-16T06:24:46;8.70;;;5.20;;
53525;SDS011;40551;50.478;19.378;2023-05-16T06:27:17;8.70;;;5.30;;
53525;SDS011;40551;50.478;19.378;2023-05-16T06:29:49;11.10;;;5.30;;
53525;SDS011;40551;50.478;19.378;2023-05-16T06:32:20;13.20;;;5.30;;
53525;SDS011;40551;50.478;19.378;2023-05-16T06:34:53;8.70;;;4.80;;
53525;SDS011;40551;50.478;19.378;2023-05-16T06:37:24;9.60;;;4.90;;
53525;SDS011;40551;50.478;19.378;2023-05-16T06:39:56;10.20;;;5.20;;
53525;SDS011;40551;50.478;19.378;2023-05-16T06:42:29;10.90;;;5.40;;
53525;SDS011;40551;50.478;19.378;2023-05-16T06:45:01;14.00;;;5.10;;
53525;SDS011;40551;50.478;19.378;2023-05-16T06:47:33;10.40;;;5.40;;
53525;SDS011;40551;50.478;19.378;2023-05-16T06:50:07;16.00;;;5.40;;
53525;SDS011;40551;50.478;19.378;2023-05-16T06:52:39;10.70;;;5.50;;
53525;SDS011;40551;50.478;19.378;2023-05-16T06:55:11;9.20;;;5.30;;
53525;SDS011;40551;50.478;19.378;2023-05-16T06:57:43;9.60;;;5.00;;
53525;SDS011;40551;50.478;19.378;2023-05-16T07:00:15;9.60;;;4.60;;
53525;SDS011;40551;50.478;19.378;2023-05-16T07:02:48;12.60;;;5.10;;
53525;SDS011;40551;50.478;19.378;2023-05-16T07:05:19;10.50;;;5.40;;
53525;SDS011;40551;50.478;19.378;2023-05-16T07:07:51;8.80;;;5.70;;
53525;SDS011;40551;50.478;19.378;2023-05-16T07:10:23;10.20;;;6.00;;
53525;SDS011;40551;50.478;19.378;2023-05-16T07:12:55;12.00;;;5.40;;
53525;SDS011;40551;50.478;19.378;2023-05-16T07:15:26;10.90;;;5.10;;
53525;SDS011;40551;50.478;19.378;2023-05-16T07:17:58;9.80;;;5.50;;
53525;SDS011;40551;50.478;19.378;2023-05-16T07:20:30;12.60;;;5.80;;
53525;SDS011;40551;50.478;19.378;2023-05-16T07:23:02;8.20;;;5.30;;
53525;SDS011;40551;50.478;19.378;2023-05-16T07:25:33;11.50;;;5.80;;
53525;SDS011;40551;50.478;19.378;2023-05-16T07:28:05;12.10;;;6.00;;
53525;SDS011;40551;50.478;19.378;2023-05-16T07:30:37;12.10;;;5.80;;
53525;SDS011;40551;50.478;19.378;2023-05-16T07:33:08;8.70;;;5.80;;
53525;SDS011;40551;50.478;19.378;2023-05-16T07:35:40;9.90;;;5.60;;
53525;SDS011;40551;50.478;19.378;2023-05-16T07:38:12;10.00;;;6.30;;
53525;SDS011;40551;50.478;19.378;2023-05-16T07:40:43;9.80;;;6.50;;
53525;SDS011;40551;50.478;19.378;2023-05-16T07:43:15;8.80;;;6.10;;
53525;SDS011;40551;50.478;19.378;2023-05-16T07:45:47;9.50;;;6.20;;
53525;SDS011;40551;50.478;19.378;2023-05-16T07:48:19;8.40;;;6.20;;
53525;SDS011;40551;50.478;19.378;2023-05-16T07:50:50;10.00;;;6.00;;
53525;SDS011;40551;50.478;19.378;2023-05-16T07:53:23;8.40;;;6.40;;
53525;SDS011;40551;50.478;19.378;2023-05-16T07:55:55;11.20;;;5.90;;
53525;SDS011;40551;50.478;19.378;2023-05-16T07:58:28;11.30;;;5.80;;
53525;SDS011;40551;50.478;19.378;2023-05-16T08:01:00;9.10;;;5.80;;
53525;SDS011;40551;50.478;19.378;2023-05-16T08:03:32;8.60;;;5.70;;
53525;SDS011;40551;50.478;19.378;2023-05-16T08:06:06;11.00;;;6.10;;
53525;SDS011;40551;50.478;19.378;2023-05-16T08:08:38;10.40;;;5.90;;
53525;SDS011;40551;50.478;19.378;2023-05-16T08:11:10;8.80;;;5.40;;
53525;SDS011;40551;50.478;19.378;2023-05-16T08:13:41;8.00;;;4.90;;
53525;SDS011;40551;50.478;19.378;2023-05-16T08:16:13;9.50;;;5.60;;
53525;SDS011;40551;50.478;19.378;2023-05-16T08:18:45;8.90;;;5.20;;
53525;SDS011;40551;50.478;19.378;2023-05-16T08:21:17;8.40;;;5.10;;
53525;SDS011;40551;50.478;19.378;2023-05-16T08:23:48;9.40;;;5.70;;
53525;SDS011;40551;50.478;19.378;2023-05-16T08:26:20;7.80;;;5.20;;
53525;SDS011;40551;50.478;19.378;2023-05-16T08:28:51;8.10;;;5.10;;
53525;SDS011;40551;50.478;19.378;2023-05-16T08:31:23;8.60;;;5.60;;
53525;SDS011;40551;50.478;19.378;2023-05-16T08:33:54;11.10;;;5.40;;
53525;SDS011;40551;50.478;19.378;2023-05-16T08:36:26;9.00;;;5.10;;
53525;SDS011;40551;50.478;19.378;2023-05-16T08:38:57;7.80;;;4.90;;
53525;SDS011;40551;50.478;19.378;2023-05-16T08:41:29;8.20;;;5.20;;
53525;SDS011;40551;50.478;19.378;2023-05-16T08:44:01;12.10;;;5.20;;
53525;SDS011;40551;50.478;19.378;2023-05-16T08:46:33;10.20;;;5.00;;
53525;SDS011;40551;50.478;19.378;2023-05-16T08:49:05;11.10;;;5.00;;
53525;SDS011;40551;50.478;19.378;2023-05-16T08:51:39;11.90;;;5.60;;
53525;SDS011;40551;50.478;19.378;2023-05-16T08:54:12;13.40;;;5.80;;
53525;SDS011;40551;50.478;19.378;2023-05-16T08:56:44;9.10;;;5.40;;
53525;SDS011;40551;50.478;19.378;2023-05-16T08:59:18;11.00;;;5.20;;
53525;SDS011;40551;50.478;19.378;2023-05-16T09:01:49;13.60;;;6.10;;
53525;SDS011;40551;50.478;19.378;2023-05-16T09:04:21;12.70;;;5.50;;
53525;SDS011;40551;50.478;19.378;2023-05-16T09:06:57;8.80;;;4.90;;
53525;SDS011;40551;50.478;19.378;2023-05-16T09:09:29;9.30;;;5.10;;
53525;SDS011;40551;50.478;19.378;2023-05-16T09:12:00;9.40;;;6.20;;
53525;SDS011;40551;50.478;19.378;2023-05-16T09:14:32;9.90;;;4.90;;
53525;SDS011;40551;50.478;19.378;2023-05-16T09:17:04;10.90;;;5.10;;
53525;SDS011;40551;50.478;19.378;2023-05-16T09:19:40;9.10;;;5.70;;
53525;SDS011;40551;50.478;19.378;2023-05-16T09:22:13;9.50;;;5.20;;
53525;SDS011;40551;50.478;19.378;2023-05-16T09:24:45;10.80;;;5.80;;
53525;SDS011;40551;50.478;19.378;2023-05-16T09:27:16;9.80;;;5.00;;
53525;SDS011;40551;50.478;19.378;2023-05-16T09:29:49;8.50;;;4.30;;
53525;SDS011;40551;50.478;19.378;2023-05-16T09:32:22;11.20;;;6.20;;
53525;SDS011;40551;50.478;19.378;2023-05-16T09:34:54;11.10;;;5.30;;
53525;SDS011;40551;50.478;19.378;2023-05-16T09:37:26;10.20;;;4.80;;
53525;SDS011;40551;50.478;19.378;2023-05-16T09:39:59;7.50;;;4.80;;
53525;SDS011;40551;50.478;19.378;2023-05-16T09:42:33;8.60;;;5.20;;
53525;SDS011;40551;50.478;19.378;2023-05-16T09:45:07;11.10;;;4.90;;
53525;SDS011;40551;50.478;19.378;2023-05-16T09:47:42;10.00;;;5.40;;
53525;SDS011;40551;50.478;19.378;2023-05-16T09:50:15;10.60;;;5.40;;
53525;SDS011;40551;50.478;19.378;2023-05-16T09:52:47;8.10;;;4.90;;
53525;SDS011;40551;50.478;19.378;2023-05-16T09:55:22;10.00;;;4.90;;
53525;SDS011;40551;50.478;19.378;2023-05-16T09:57:54;11.00;;;5.00;;
53525;SDS011;40551;50.478;19.378;2023-05-16T10:00:29;8.10;;;4.50;;
53525;SDS011;40551;50.478;19.378;2023-05-16T10:03:01;8.30;;;4.50;;
53525;SDS011;40551;50.478;19.378;2023-05-16T10:05:34;9.90;;;5.00;;
53525;SDS011;40551;50.478;19.378;2023-05-16T10:08:06;8.10;;;4.50;;
53525;SDS011;40551;50.478;19.378;2023-05-16T10:10:39;8.20;;;4.60;;
53525;SDS011;40551;50.478;19.378;2023-05-16T10:13:10;6.70;;;4.60;;
53525;SDS011;40551;50.478;19.378;2023-05-16T10:15:43;9.80;;;4.60;;
53525;SDS011;40551;50.478;19.378;2023-05-16T10:18:16;8.50;;;4.60;;
53525;SDS011;40551;50.478;19.378;2023-05-16T10:20:50;9.50;;;5.00;;
53525;SDS011;40551;50.478;19.378;2023-05-16T10:23:24;9.80;;;5.00;;
53525;SDS011;40551;50.478;19.378;2023-05-16T10:25:57;10.40;;;4.90;;
53525;SDS011;40551;50.478;19.378;2023-05-16T10:28:31;12.80;;;5.40;;
53525;SDS011;40551;50.478;19.378;2023-05-16T10:31:04;12.60;;;5.40;;
53525;SDS011;40551;50.478;19.378;2023-05-16T10:33:36;10.70;;;5.00;;
53525;SDS011;40551;50.478;19.378;2023-05-16T10:36:09;9.70;;;5.10;;
53525;SDS011;40551;50.478;19.378;2023-05-16T10:38:41;8.30;;;4.90;;
53525;SDS011;40551;50.478;19.378;2023-05-16T10:41:13;9.20;;;4.80;;
53525;SDS011;40551;50.478;19.378;2023-05-16T10:43:56;7.90;;;4.80;;
53525;SDS011;40551;50.478;19.378;2023-05-16T10:46:29;11.90;;;5.30;;
53525;SDS011;40551;50.478;19.378;2023-05-16T10:49:07;7.70;;;4.60;;
53525;SDS011;40551;50.478;19.378;2023-05-16T10:52:02;11.60;;;4.90;;
53525;SDS011;40551;50.478;19.378;2023-05-16T10:54:37;10.20;;;4.90;;
53525;SDS011;40551;50.478;19.378;2023-05-16T10:57:10;9.30;;;4.70;;
53525;SDS011;40551;50.478;19.378;2023-05-16T10:59:51;10.20;;;4.30;;
53525;SDS011;40551;50.478;19.378;2023-05-16T11:02:28;10.10;;;4.40;;
53525;SDS011;40551;50.478;19.378;2023-05-16T11:05:02;10.90;;;4.80;;
53525;SDS011;40551;50.478;19.378;2023-05-16T11:07:35;8.60;;;4.50;;
53525;SDS011;40551;50.478;19.378;2023-05-16T11:10:08;7.90;;;4.50;;
53525;SDS011;40551;50.478;19.378;2023-05-16T11:12:44;10.70;;;4.30;;
53525;SDS011;40551;50.478;19.378;2023-05-16T11:15:18;9.60;;;4.50;;
53525;SDS011;40551;50.478;19.378;2023-05-16T11:18:03;9.60;;;4.50;;
53525;SDS011;40551;50.478;19.378;2023-05-16T11:20:38;10.90;;;4.80;;
53525;SDS011;40551;50.478;19.378;2023-05-16T11:23:17;8.10;;;4.90;;
53525;SDS011;40551;50.478;19.378;2023-05-16T11:25:52;11.30;;;6.30;;
53525;SDS011;40551;50.478;19.378;2023-05-16T11:28:26;10.00;;;4.50;;
53525;SDS011;40551;50.478;19.378;2023-05-16T11:30:58;10.20;;;5.10;;
53525;SDS011;40551;50.478;19.378;2023-05-16T11:33:33;9.30;;;5.80;;
53525;SDS011;40551;50.478;19.378;2023-05-16T11:36:05;16.70;;;12.20;;
53525;SDS011;40551;50.478;19.378;2023-05-16T11:38:44;10.50;;;5.30;;
53525;SDS011;40551;50.478;19.378;2023-05-16T11:41:16;11.10;;;4.40;;
53525;SDS011;40551;50.478;19.378;2023-05-16T11:43:49;7.90;;;3.80;;
53525;SDS011;40551;50.478;19.378;2023-05-16T11:46:21;7.30;;;4.40;;
53525;SDS011;40551;50.478;19.378;2023-05-16T11:48:53;9.80;;;4.40;;
53525;SDS011;40551;50.478;19.378;2023-05-16T11:51:24;10.10;;;4.10;;
53525;SDS011;40551;50.478;19.378;2023-05-16T11:53:56;8.10;;;4.10;;
53525;SDS011;40551;50.478;19.378;2023-05-16T11:56:28;10.30;;;4.30;;
53525;SDS011;40551;50.478;19.378;2023-05-16T11:59:00;10.20;;;4.80;;
53525;SDS011;40551;50.478;19.378;2023-05-16T12:01:33;9.90;;;4.20;;
53525;SDS011;40551;50.478;19.378;2023-05-16T12:04:08;8.60;;;4.50;;
53525;SDS011;40551;50.478;19.378;2023-05-16T12:06:40;7.40;;;4.20;;
53525;SDS011;40551;50.478;19.378;2023-05-16T12:09:13;10.10;;;4.10;;
53525;SDS011;40551;50.478;19.378;2023-05-16T12:11:46;10.10;;;5.20;;
53525;SDS011;40551;50.478;19.378;2023-05-16T12:14:18;12.30;;;4.70;;
53525;SDS011;40551;50.478;19.378;2023-05-16T12:16:51;9.00;;;4.70;;
53525;SDS011;40551;50.478;19.378;2023-05-16T12:19:23;8.50;;;5.60;;
53525;SDS011;40551;50.478;19.378;2023-05-16T12:21:55;9.00;;;4.30;;
53525;SDS011;40551;50.478;19.378;2023-05-16T12:24:30;8.70;;;4.50;;
53525;SDS011;40551;50.478;19.378;2023-05-16T12:27:02;6.90;;;3.80;;
53525;SDS011;40551;50.478;19.378;2023-05-16T12:29:34;7.80;;;4.10;;
53525;SDS011;40551;50.478;19.378;2023-05-16T12:32:07;8.80;;;4.40;;
53525;SDS011;40551;50.478;19.378;2023-05-16T12:34:41;8.10;;;4.70;;
53525;SDS011;40551;50.478;19.378;2023-05-16T12:37:20;8.90;;;4.60;;
53525;SDS011;40551;50.478;19.378;2023-05-16T12:39:51;8.60;;;4.60;;
53525;SDS011;40551;50.478;19.378;2023-05-16T12:42:30;10.00;;;4.40;;
53525;SDS011;40551;50.478;19.378;2023-05-16T12:45:01;7.40;;;4.70;;
53525;SDS011;40551;50.478;19.378;2023-05-16T12:47:36;6.80;;;4.00;;
53525;SDS011;40551;50.478;19.378;2023-05-16T12:50:09;7.00;;;4.10;;
53525;SDS011;40551;50.478;19.378;2023-05-16T12:52:49;7.50;;;4.00;;
53525;SDS011;40551;50.478;19.378;2023-05-16T12:55:22;6.40;;;3.80;;
53525;SDS011;40551;50.478;19.378;2023-05-16T12:57:55;11.00;;;4.60;;
53525;SDS011;40551;50.478;19.378;2023-05-16T13:00:27;10.20;;;3.90;;
53525;SDS011;40551;50.478;19.378;2023-05-16T13:02:59;8.60;;;3.80;;
53525;SDS011;40551;50.478;19.378;2023-05-16T13:05:32;8.80;;;4.00;;
53525;SDS011;40551;50.478;19.378;2023-05-16T13:08:04;7.80;;;4.60;;
53525;SDS011;40551;50.478;19.378;2023-05-16T13:10:37;7.20;;;4.20;;
53525;SDS011;40551;50.478;19.378;2023-05-16T13:13:09;8.40;;;5.30;;
53525;SDS011;40551;50.478;19.378;2023-05-16T13:15:50;8.30;;;4.00;;
53525;SDS011;40551;50.478;19.378;2023-05-16T13:18:23;7.70;;;4.10;;
53525;SDS011;40551;50.478;19.378;2023-05-16T13:20:55;8.10;;;4.60;;
53525;SDS011;40551;50.478;19.378;2023-05-16T13:23:27;7.70;;;4.50;;
53525;SDS011;40551;50.478;19.378;2023-05-16T13:25:58;10.50;;;5.40;;
53525;SDS011;40551;50.478;19.378;2023-05-16T13:28:30;8.50;;;4.30;;
53525;SDS011;40551;50.478;19.378;2023-05-16T13:31:02;6.10;;;4.00;;
53525;SDS011;40551;50.478;19.378;2023-05-16T13:33:34;6.90;;;4.00;;
53525;SDS011;40551;50.478;19.378;2023-05-16T13:36:07;7.00;;;4.30;;
53525;SDS011;40551;50.478;19.378;2023-05-16T13:38:39;13.40;;;7.10;;
53525;SDS011;40551;50.478;19.378;2023-05-16T13:41:11;7.70;;;3.80;;
53525;SDS011;40551;50.478;19.378;2023-05-16T13:43:45;9.20;;;4.50;;
53525;SDS011;40551;50.478;19.378;2023-05-16T13:46:17;10.90;;;5.90;;
53525;SDS011;40551;50.478;19.378;2023-05-16T13:48:49;9.10;;;5.70;;
53525;SDS011;40551;50.478;19.378;2023-05-16T13:51:21;7.80;;;4.10;;
53525;SDS011;40551;50.478;19.378;2023-05-16T13:53:53;8.70;;;4.10;;
53525;SDS011;40551;50.478;19.378;2023-05-16T13:56:32;7.40;;;3.90;;
53525;SDS011;40551;50.478;19.378;2023-05-16T13:59:18;10.10;;;3.60;;
53525;SDS011;40551;50.478;19.378;2023-05-16T14:02:30;7.30;;;4.00;;
53525;SDS011;40551;50.478;19.378;2023-05-16T14:05:14;8.80;;;3.60;;
53525;SDS011;40551;50.478;19.378;2023-05-16T14:07:58;7.00;;;3.60;;
53525;SDS011;40551;50.478;19.378;2023-05-16T14:10:44;8.80;;;3.60;;
53525;SDS011;40551;50.478;19.378;2023-05-16T14:13:21;6.50;;;3.50;;
53525;SDS011;40551;50.478;19.378;2023-05-16T14:15:56;7.00;;;3.60;;
53525;SDS011;40551;50.478;19.378;2023-05-16T14:18:31;6.20;;;3.80;;
53525;SDS011;40551;50.478;19.378;2023-05-16T14:21:05;8.00;;;3.90;;
53525;SDS011;40551;50.478;19.378;2023-05-16T14:23:40;6.60;;;3.50;;
53525;SDS011;40551;50.478;19.378;2023-05-16T14:26:14;7.50;;;4.00;;
53525;SDS011;40551;50.478;19.378;2023-05-16T14:29:02;8.30;;;4.00;;
53525;SDS011;40551;50.478;19.378;2023-05-16T14:31:45;9.40;;;3.60;;
53525;SDS011;40551;50.478;19.378;2023-05-16T14:34:38;8.50;;;4.10;;
53525;SDS011;40551;50.478;19.378;2023-05-16T14:37:18;9.40;;;3.80;;
53525;SDS011;40551;50.478;19.378;2023-05-16T14:39:53;8.10;;;4.20;;
53525;SDS011;40551;50.478;19.378;2023-05-16T14:42:27;7.80;;;4.10;;
53525;SDS011;40551;50.478;19.378;2023-05-16T14:44:59;9.60;;;3.90;;
53525;SDS011;40551;50.478;19.378;2023-05-16T14:47:31;8.10;;;4.20;;
53525;SDS011;40551;50.478;19.378;2023-05-16T14:50:03;7.30;;;3.70;;
53525;SDS011;40551;50.478;19.378;2023-05-16T14:52:38;8.10;;;3.90;;
53525;SDS011;40551;50.478;19.378;2023-05-16T14:55:10;6.50;;;3.90;;
53525;SDS011;40551;50.478;19.378;2023-05-16T14:57:44;6.80;;;4.30;;
53525;SDS011;40551;50.478;19.378;2023-05-16T15:00:24;7.60;;;3.80;;
53525;SDS011;40551;50.478;19.378;2023-05-16T15:02:57;6.70;;;3.50;;
53525;SDS011;40551;50.478;19.378;2023-05-16T15:05:29;8.20;;;3.90;;
53525;SDS011;40551;50.478;19.378;2023-05-16T15:08:01;7.40;;;4.00;;
53525;SDS011;40551;50.478;19.378;2023-05-16T15:10:35;7.00;;;3.40;;
53525;SDS011;40551;50.478;19.378;2023-05-16T15:13:08;11.30;;;5.60;;
53525;SDS011;40551;50.478;19.378;2023-05-16T15:15:39;8.20;;;4.50;;
53525;SDS011;40551;50.478;19.378;2023-05-16T15:18:11;10.30;;;4.00;;
53525;SDS011;40551;50.478;19.378;2023-05-16T15:20:43;6.70;;;3.70;;
53525;SDS011;40551;50.478;19.378;2023-05-16T15:23:15;7.90;;;4.00;;
53525;SDS011;40551;50.478;19.378;2023-05-16T15:25:46;9.70;;;4.20;;
53525;SDS011;40551;50.478;19.378;2023-05-16T15:28:20;9.40;;;3.70;;
53525;SDS011;40551;50.478;19.378;2023-05-16T15:30:51;9.30;;;4.00;;
53525;SDS011;40551;50.478;19.378;2023-05-16T15:33:23;7.20;;;3.70;;
53525;SDS011;40551;50.478;19.378;2023-05-16T15:35:55;9.40;;;4.20;;
53525;SDS011;40551;50.478;19.378;2023-05-16T15:38:27;11.90;;;8.60;;
53525;SDS011;40551;50.478;19.378;2023-05-16T15:40:58;7.40;;;4.60;;